Time;durP1;ratioP1;P1;durP2;ratioP2;P2;SDS_P1;SDS_P2;PMS_P1;PMS_P2;Temp;Humidity;BMP_temperature;BMP_pressure;BME280_temperature;BME280_humidity;BME280_pressure;Samples;Min_cycle;Max_cycle;Signal;HPM_P1;HPM_P2
2021/01/13 00:00:22;;;;;;;29.60;15.57;;;-3275.10;67.20;;;;;;5022753;28;85389;-81
2021/01/13 00:02:49;;;;;;;30.07;15.13;;;-3275.10;67.10;;;;;;5040518;28;82256;-79
2021/01/13 00:05:15;;;;;;;29.47;15.97;;;-3275.00;67.10;;;;;;5035733;28;83279;-80
2021/01/13 00:07:44;;;;;;;28.20;16.50;;;-3275.00;67.00;;;;;;5034836;28;82650;-80
2021/01/13 00:10:11;;;;;;;29.60;16.13;;;-3274.80;67.10;;;;;;5016266;28;82732;-80
2021/01/13 00:12:37;;;;;;;27.30;15.00;;;-3274.80;67.50;;;;;;5013557;28;83417;-80
2021/01/13 00:15:07;;;;;;;32.07;14.93;;;-3274.60;67.50;;;;;;5011947;28;83949;-80
2021/01/13 00:17:34;;;;;;;32.10;14.90;;;-3274.60;67.80;;;;;;5011406;28;83532;-79
2021/01/13 00:19:59;;;;;;;27.80;15.07;;;-3274.40;68.10;;;;;;5012766;28;86251;-80
2021/01/13 00:22:25;;;;;;;26.90;14.80;;;-3274.50;68.10;;;;;;5030374;28;83325;-80
2021/01/13 00:24:52;;;;;;;25.30;14.77;;;-3274.50;67.90;;;;;;5010839;28;83300;-79
2021/01/13 00:27:21;;;;;;;28.17;16.57;;;-3274.50;67.90;;;;;;5010375;28;82860;-81
2021/01/13 00:29:51;;;;;;;31.30;16.30;;;-3274.40;67.90;;;;;;5010944;28;82511;-79
2021/01/13 00:32:17;;;;;;;29.37;15.53;;;-3274.40;67.90;;;;;;5007652;28;85855;-80
2021/01/13 00:34:45;;;;;;;31.57;16.33;;;-3274.40;67.90;;;;;;5008000;28;86312;-79
2021/01/13 00:37:11;;;;;;;29.97;15.87;;;-3274.30;67.90;;;;;;5007686;28;86518;-79
2021/01/13 00:39:37;;;;;;;28.90;16.37;;;-3274.20;68.00;;;;;;5007671;28;84994;-79
2021/01/13 00:42:04;;;;;;;27.40;14.60;;;-3274.20;68.10;;;;;;5008794;28;83494;-79
2021/01/13 00:44:30;;;;;;;32.30;16.10;;;-3274.30;68.10;;;;;;5012009;28;83207;-82
2021/01/13 00:46:56;;;;;;;29.80;15.77;;;-3274.30;68.00;;;;;;5010303;28;84324;-80
2021/01/13 00:49:23;;;;;;;28.00;15.90;;;-3274.30;68.00;;;;;;5008549;28;82825;-80
2021/01/13 00:51:48;;;;;;;30.27;16.50;;;-3274.30;67.90;;;;;;5008772;28;82775;-80
2021/01/13 00:54:14;;;;;;;28.87;15.83;;;-3274.30;67.60;;;;;;5008240;28;85862;-80
2021/01/13 00:56:45;;;;;;;27.70;15.87;;;-3274.30;67.50;;;;;;5009127;28;85710;-80
2021/01/13 00:59:11;;;;;;;30.20;16.27;;;-3274.20;67.50;;;;;;5007928;28;83389;-80
2021/01/13 01:01:38;;;;;;;31.47;15.53;;;-3274.10;67.50;;;;;;5026927;28;83156;-80
2021/01/13 01:04:09;;;;;;;33.70;16.37;;;-3274.10;67.50;;;;;;5008225;28;85063;-80
2021/01/13 01:06:35;;;;;;;31.87;15.63;;;-3274.10;67.40;;;;;;5008176;28;84520;-79
2021/01/13 01:09:03;;;;;;;30.53;15.10;;;-3273.90;67.30;;;;;;5026593;28;82549;-79
2021/01/13 01:11:36;;;;;;;30.87;16.00;;;-3273.90;67.40;;;;;;5026056;28;84005;-79
2021/01/13 01:14:03;;;;;;;32.67;16.35;;;-3273.80;67.60;;;;;;5007423;28;83702;-79
2021/01/13 01:16:33;;;;;;;28.53;15.90;;;-3273.80;67.50;;;;;;5007024;28;84681;-79
2021/01/13 01:19:00;;;;;;;27.83;16.60;;;-3273.80;67.50;;;;;;5007347;28;86381;-79
2021/01/13 01:21:26;;;;;;;27.37;16.87;;;-3273.80;67.60;;;;;;5008212;28;82482;-79
2021/01/13 01:23:52;;;;;;;32.93;17.53;;;-3273.80;67.60;;;;;;4992968;28;85489;-81
2021/01/13 01:26:18;;;;;;;30.33;17.40;;;-3273.90;67.60;;;;;;5011009;28;83304;-79
2021/01/13 01:28:44;;;;;;;28.93;16.43;;;-3274.00;67.70;;;;;;5006815;28;84564;-79
2021/01/13 01:31:10;;;;;;;31.40;16.37;;;-3274.00;67.80;;;;;;5025255;28;84843;-79
2021/01/13 01:33:36;;;;;;;28.33;15.90;;;-3274.00;67.90;;;;;;5006439;28;87394;-79
2021/01/13 01:36:02;;;;;;;39.93;18.03;;;-3274.00;68.00;;;;;;5025291;28;83392;-79
2021/01/13 01:38:28;;;;;;;32.27;18.07;;;-3274.00;68.10;;;;;;5006676;28;84632;-79
2021/01/13 01:41:03;;;;;;;31.57;16.90;;;-3274.00;68.10;;;;;;5024981;28;83394;-79
2021/01/13 01:43:29;;;;;;;34.97;17.77;;;-3274.00;68.20;;;;;;5006854;28;83574;-80
2021/01/13 01:45:55;;;;;;;32.10;16.53;;;-3274.00;68.20;;;;;;5006852;28;84500;-80
2021/01/13 01:48:35;;;;;;;32.60;16.67;;;-3274.00;68.00;;;;;;5025702;28;83082;-79
2021/01/13 01:51:02;;;;;;;33.13;17.23;;;-3274.00;68.00;;;;;;5007198;28;84032;-80
2021/01/13 01:53:37;;;;;;;29.07;16.00;;;-3274.00;67.60;;;;;;5025555;28;82954;-80
2021/01/13 01:56:25;;;;;;;34.80;18.07;;;-3274.00;67.60;;;;;;5006947;28;83661;-80
2021/01/13 01:59:01;;;;;;;30.50;16.70;;;-3274.00;67.50;;;;;;5006868;28;86146;-79
2021/01/13 02:01:36;;;;;;;31.77;16.60;;;-3274.00;67.60;;;;;;5025285;28;83869;-79
2021/01/13 02:04:25;;;;;;;32.30;16.80;;;-3274.00;67.50;;;;;;5006536;28;85832;-80
2021/01/13 02:07:00;;;;;;;28.63;16.13;;;-3274.00;67.50;;;;;;5006296;28;86613;-79
2021/01/13 02:09:29;;;;;;;32.90;16.63;;;-3274.00;67.40;;;;;;5006561;28;85548;-79
2021/01/13 02:11:57;;;;;;;33.40;16.87;;;-3274.10;67.10;;;;;;5024973;28;83654;-79
2021/01/13 02:14:24;;;;;;;28.13;15.37;;;-3274.00;67.00;;;;;;5008457;28;82772;-77
2021/01/13 02:16:55;;;;;;;29.87;15.80;;;-3273.80;66.80;;;;;;5007472;28;84422;-78
2021/01/13 02:19:27;;;;;;;29.33;15.93;;;-3273.60;67.20;;;;;;5025333;28;82839;-78
2021/01/13 02:21:57;;;;;;;30.47;15.63;;;-3273.50;67.50;;;;;;5006611;28;83665;-78
2021/01/13 02:24:47;;;;;;;31.80;16.00;;;-3273.30;67.50;;;;;;5005777;28;83554;-77
2021/01/13 02:27:51;;;;;;;31.37;16.07;;;-3273.30;67.80;;;;;;5025838;28;83303;-79
2021/01/13 02:30:20;;;;;;;35.15;16.60;;;-3273.40;67.70;;;;;;5009517;28;83566;-78
2021/01/13 02:32:50;;;;;;;26.60;14.93;;;-3273.30;67.50;;;;;;5027838;28;85251;-78
2021/01/13 02:35:28;;;;;;;30.90;16.07;;;-3273.30;67.50;;;;;;5009891;28;83749;-79
2021/01/13 02:38:06;;;;;;;32.93;16.50;;;-3273.40;67.20;;;;;;5005666;28;83881;-79
2021/01/13 02:40:32;;;;;;;30.00;16.63;;;-3273.30;66.90;;;;;;5027841;28;83131;-77
2021/01/13 02:43:09;;;;;;;33.53;16.30;;;-3273.30;66.80;;;;;;5009704;28;86789;-77
2021/01/13 02:45:44;;;;;;;30.53;15.17;;;-3273.20;66.70;;;;;;5011336;28;85032;-78
2021/01/13 02:48:16;;;;;;;28.37;15.13;;;-3273.10;66.90;;;;;;5028811;28;83562;-79
2021/01/13 02:50:57;;;;;;;31.03;15.03;;;-3272.90;67.20;;;;;;5029016;28;83025;-79
2021/01/13 02:53:22;;;;;;;33.60;15.70;;;-3272.80;67.40;;;;;;5009963;28;84477;-79
2021/01/13 02:55:48;;;;;;;32.03;15.83;;;-3272.80;67.60;;;;;;5028651;28;83505;-79
2021/01/13 02:58:37;;;;;;;26.60;14.73;;;-3272.80;67.80;;;;;;5009759;28;84833;-78
2021/01/13 03:01:07;;;;;;;28.83;15.73;;;-3272.80;67.80;;;;;;5023789;28;83507;-79
2021/01/13 03:03:34;;;;;;;30.60;16.03;;;-3272.80;67.60;;;;;;5027824;28;83251;-77
2021/01/13 03:06:07;;;;;;;27.70;15.73;;;-3272.80;67.40;;;;;;5009238;28;86400;-76
2021/01/13 03:08:55;;;;;;;22.27;12.80;;;-3272.80;67.50;;;;;;5027321;28;85557;-78
2021/01/13 03:11:21;;;;;;;29.17;15.73;;;-3272.80;67.40;;;;;;5027462;28;83456;-79
2021/01/13 03:13:48;;;;;;;30.57;16.50;;;-3272.80;67.50;;;;;;5009790;28;86161;-78
2021/01/13 03:16:15;;;;;;;31.30;16.40;;;-3272.80;67.30;;;;;;5009721;28;82823;-77
2021/01/13 03:19:03;;;;;;;32.20;17.33;;;-3272.80;67.10;;;;;;4992665;28;83757;-77
2021/01/13 03:21:46;;;;;;;30.63;16.13;;;-3272.80;67.00;;;;;;5005738;28;85052;-76
2021/01/13 03:24:18;;;;;;;29.63;14.90;;;-3272.80;67.10;;;;;;5027295;28;83664;-77
2021/01/13 03:26:46;;;;;;;33.37;16.83;;;-3272.70;67.00;;;;;;5028990;28;82356;-77
2021/01/13 03:29:19;;;;;;;30.57;17.43;;;-3272.60;67.10;;;;;;5010428;28;86392;-73
2021/01/13 03:32:06;;;;;;;32.25;16.45;;;-3272.60;67.30;;;;;;5008838;28;85480;-78
2021/01/13 03:34:52;;;;;;;33.10;16.53;;;-3272.70;67.40;;;;;;5008912;28;83320;-77
2021/01/13 03:37:24;;;;;;;32.07;16.30;;;-3272.70;67.20;;;;;;5008341;28;84973;-78
2021/01/13 03:39:52;;;;;;;34.53;16.27;;;-3272.70;67.20;;;;;;5026624;28;83729;-79
2021/01/13 03:42:20;;;;;;;26.90;15.73;;;-3272.60;67.10;;;;;;5009532;28;85157;-79
2021/01/13 03:44:47;;;;;;;36.43;16.93;;;-3272.60;67.10;;;;;;5008985;28;83661;-77
2021/01/13 03:47:24;;;;;;;27.90;15.90;;;-3272.50;67.20;;;;;;5026793;28;82429;-77
2021/01/13 03:50:27;;;;;;;31.47;16.20;;;-3272.60;67.40;;;;;;5008617;28;85088;-78
2021/01/13 03:53:01;;;;;;;32.50;15.13;;;-3272.60;67.30;;;;;;5026776;28;83603;-77
2021/01/13 03:55:29;;;;;;;34.37;15.97;;;-3272.60;67.50;;;;;;5008925;28;86589;-77
2021/01/13 03:57:58;;;;;;;30.20;16.10;;;-3272.60;67.30;;;;;;5008848;28;87023;-77
2021/01/13 04:00:55;;;;;;;26.67;14.47;;;-3272.60;67.30;;;;;;5026934;28;83285;-77
2021/01/13 04:03:31;;;;;;;26.20;15.00;;;-3272.50;66.80;;;;;;5006265;28;84683;-77
2021/01/13 04:06:12;;;;;;;28.03;15.30;;;-3272.30;67.00;;;;;;5009015;28;86262;-78
2021/01/13 04:08:43;;;;;;;33.37;15.70;;;-3272.30;67.40;;;;;;5026556;28;82969;-78
2021/01/13 04:11:11;;;;;;;32.13;16.13;;;-3272.20;67.40;;;;;;5026805;28;83836;-77
2021/01/13 04:13:37;;;;;;;33.47;16.23;;;-3272.00;67.60;;;;;;5026670;28;82873;-77
2021/01/13 04:16:04;;;;;;;30.07;16.60;;;-3271.90;68.00;;;;;;5008240;28;85135;-77
2021/01/13 04:18:30;;;;;;;31.97;15.13;;;-3271.80;68.20;;;;;;5027058;28;85120;-77
2021/01/13 04:20:56;;;;;;;32.23;14.87;;;-3271.80;68.30;;;;;;5008956;28;86024;-77
2021/01/13 04:23:22;;;;;;;30.43;15.27;;;-3271.80;68.30;;;;;;5008953;28;83622;-77
2021/01/13 04:25:49;;;;;;;35.00;16.90;;;-3271.80;68.20;;;;;;5026793;28;84036;-77
2021/01/13 04:28:15;;;;;;;28.87;15.80;;;-3271.80;68.10;;;;;;5008560;28;85887;-77
2021/01/13 04:30:41;;;;;;;30.70;14.77;;;-3271.80;68.20;;;;;;5009268;28;85771;-77
2021/01/13 04:33:08;;;;;;;30.97;15.60;;;-3271.90;68.10;;;;;;5026398;28;85021;-77
2021/01/13 04:35:34;;;;;;;32.07;15.67;;;-3272.00;68.20;;;;;;5008059;28;83709;-76
2021/01/13 04:38:03;;;;;;;28.03;15.40;;;-3272.00;67.90;;;;;;5008053;28;83181;-76
2021/01/13 04:40:29;;;;;;;32.30;14.63;;;-3272.00;67.50;;;;;;5007725;28;83801;-78
2021/01/13 04:43:09;;;;;;;34.83;15.80;;;-3271.90;67.40;;;;;;5008126;28;84671;-78
2021/01/13 04:45:46;;;;;;;32.43;15.43;;;-3271.90;67.70;;;;;;5008953;28;83891;-76
2021/01/13 04:48:14;;;;;;;28.83;15.00;;;-3271.80;67.80;;;;;;5007988;28;86236;-77
2021/01/13 04:50:42;;;;;;;26.77;13.83;;;-3271.60;67.80;;;;;;5025322;28;83650;-77
2021/01/13 04:53:11;;;;;;;32.23;15.00;;;-3271.50;68.10;;;;;;5025862;28;83329;-76
2021/01/13 04:55:49;;;;;;;33.57;15.03;;;-3271.40;68.40;;;;;;5007925;28;83491;-77
2021/01/13 04:58:27;;;;;;;30.03;15.07;;;-3271.40;68.60;;;;;;5025871;28;83925;-76
2021/01/13 05:01:29;;;;;;;31.10;15.43;;;-3271.50;68.50;;;;;;5007824;28;86006;-77
2021/01/13 05:04:01;;;;;;;32.60;16.47;;;-3271.50;68.50;;;;;;5007880;28;86160;-77
2021/01/13 05:06:39;;;;;;;29.43;15.30;;;-3271.60;68.50;;;;;;5025523;28;83981;-77
2021/01/13 05:09:08;;;;;;;34.90;16.10;;;-3271.70;68.50;;;;;;5007100;28;82612;-77
2021/01/13 05:11:42;;;;;;;33.63;16.57;;;-3271.80;68.60;;;;;;5025855;28;83675;-77
2021/01/13 05:14:09;;;;;;;31.27;15.50;;;-3271.90;68.30;;;;;;5007445;28;83173;-76
2021/01/13 05:16:55;;;;;;;30.70;15.77;;;-3271.90;68.10;;;;;;5007327;28;83379;-76
2021/01/13 05:20:09;;;;;;;32.77;15.37;;;-3271.90;68.10;;;;;;5025703;28;82979;-77
2021/01/13 05:22:35;;;;;;;25.60;11.77;;;-3271.80;68.20;;;;;;5007726;28;84997;-77
2021/01/13 05:25:06;;;;;;;33.80;17.03;;;-3271.80;68.30;;;;;;5006051;28;85650;-76
2021/01/13 05:27:47;;;;;;;33.33;16.40;;;-3271.70;68.60;;;;;;5024480;28;83816;-77
2021/01/13 05:30:13;;;;;;;28.17;15.07;;;-3271.60;68.80;;;;;;5025375;28;82590;-77
2021/01/13 05:32:41;;;;;;;33.10;15.30;;;-3271.60;68.80;;;;;;5007420;28;84526;-76
2021/01/13 05:35:08;;;;;;;28.10;15.10;;;-3271.70;68.60;;;;;;5025469;28;82579;-77
2021/01/13 05:38:05;;;;;;;33.87;16.90;;;-3271.70;68.50;;;;;;5006717;28;86132;-76
2021/01/13 05:40:38;;;;;;;28.13;14.43;;;-3271.80;68.40;;;;;;5025741;28;82585;-77
2021/01/13 05:43:07;;;;;;;29.45;15.25;;;-3271.70;68.10;;;;;;5007880;28;85790;-76
2021/01/13 05:45:36;;;;;;;30.80;16.03;;;-3271.70;68.10;;;;;;5026237;28;82798;-77
2021/01/13 05:48:02;;;;;;;31.03;14.63;;;-3271.60;68.20;;;;;;5006973;28;84761;-76
2021/01/13 05:50:28;;;;;;;32.17;16.13;;;-3271.60;68.10;;;;;;5007422;28;83496;-76
2021/01/13 05:52:55;;;;;;;33.20;15.80;;;-3271.60;67.90;;;;;;5007432;28;83745;-76
2021/01/13 05:55:22;;;;;;;29.37;15.27;;;-3271.50;67.90;;;;;;5025580;28;84163;-77
2021/01/13 05:58:06;;;;;;;36.63;15.57;;;-3271.40;68.00;;;;;;5007667;28;82604;-75
2021/01/13 06:00:33;;;;;;;39.70;16.67;;;-3271.40;68.10;;;;;;5007671;28;86255;-76
2021/01/13 06:03:03;;;;;;;30.70;14.87;;;-3271.40;67.90;;;;;;5026389;28;83672;-76
2021/01/13 06:05:34;;;;;;;35.77;15.50;;;-3271.50;67.90;;;;;;5008286;28;83223;-77
2021/01/13 06:08:02;;;;;;;36.13;17.63;;;-3271.50;67.80;;;;;;5025668;28;83511;-77
2021/01/13 06:10:34;;;;;;;31.30;16.27;;;-3271.50;67.80;;;;;;5007144;28;83581;-76
2021/01/13 06:13:02;;;;;;;39.23;15.77;;;-3271.60;67.70;;;;;;5027019;28;82609;-76
2021/01/13 06:15:28;;;;;;;40.10;17.03;;;-3271.70;67.70;;;;;;4992508;28;84979;-76
2021/01/13 06:17:56;;;;;;;32.07;16.30;;;-3271.70;67.60;;;;;;5026207;28;83453;-76
2021/01/13 06:20:24;;;;;;;30.10;15.77;;;-3271.70;67.70;;;;;;5006320;28;84504;-76
2021/01/13 06:22:52;;;;;;;37.30;17.23;;;-3271.70;67.60;;;;;;4990334;28;86351;-76
2021/01/13 06:25:31;;;;;;;33.70;15.90;;;-3271.70;67.60;;;;;;5024379;28;83075;-76
2021/01/13 06:27:56;;;;;;;31.83;15.27;;;-3271.70;67.70;;;;;;5006035;28;84735;-76
2021/01/13 06:30:28;;;;;;;39.80;17.23;;;-3271.70;67.60;;;;;;5006209;28;86105;-78
2021/01/13 06:33:20;;;;;;;29.10;15.30;;;-3271.70;67.70;;;;;;5005844;28;83505;-77
2021/01/13 06:35:58;;;;;;;37.47;16.43;;;-3271.70;67.80;;;;;;5006032;28;84386;-76
2021/01/13 06:39:01;;;;;;;30.63;15.80;;;-3271.70;67.80;;;;;;5001354;28;85782;-73
2021/01/13 06:41:28;;;;;;;33.05;15.15;;;-3271.60;67.90;;;;;;4954049;28;84120;-72
2021/01/13 06:44:05;;;;;;;35.93;16.63;;;-3271.40;68.40;;;;;;4998502;28;84010;-75
2021/01/13 06:46:33;;;;;;;34.60;15.13;;;-3271.30;68.80;;;;;;4996863;28;86487;-70
2021/01/13 06:49:16;;;;;;;32.60;16.43;;;-3271.30;69.00;;;;;;5009376;28;83271;-72
2021/01/13 06:51:44;;;;;;;32.35;16.52;;;-3271.20;69.10;;;;;;5009012;28;83839;-72
2021/01/13 06:54:14;;;;;;;36.30;16.40;;;-3271.30;69.20;;;;;;4995936;28;85360;-72
2021/01/13 06:56:55;;;;;;;30.30;15.57;;;-3271.30;69.40;;;;;;5008820;28;83923;-74
2021/01/13 06:59:25;;;;;;;32.93;15.40;;;-3271.30;69.30;;;;;;4999233;28;86589;-72
2021/01/13 07:01:55;;;;;;;33.60;16.50;;;-3271.30;69.20;;;;;;5008351;28;84177;-72
2021/01/13 07:04:22;;;;;;;38.20;16.23;;;-3271.40;69.10;;;;;;5000127;28;83904;-73
2021/01/13 07:07:05;;;;;;;36.87;17.80;;;-3271.40;69.00;;;;;;4996875;28;85865;-73
2021/01/13 07:09:40;;;;;;;27.00;12.47;;;-3271.60;68.90;;;;;;4994779;28;85659;-73
2021/01/13 07:12:08;;;;;;;31.83;16.27;;;-3271.60;68.70;;;;;;5007124;28;83885;-71
2021/01/13 07:14:39;;;;;;;30.27;15.27;;;-3271.50;68.40;;;;;;5002381;28;85288;-76
2021/01/13 07:17:07;;;;;;;33.63;15.40;;;-3271.50;68.30;;;;;;4999172;28;85901;-71
2021/01/13 07:19:37;;;;;;;34.90;14.90;;;-3271.60;68.30;;;;;;5011581;28;84042;-74
2021/01/13 07:22:04;;;;;;;37.33;17.47;;;-3271.50;68.00;;;;;;5011322;28;84422;-72
2021/01/13 07:24:31;;;;;;;34.07;16.17;;;-3271.40;68.20;;;;;;5011280;28;84091;-71
2021/01/13 07:26:57;;;;;;;32.80;16.67;;;-3271.30;68.30;;;;;;5010908;28;83882;-71
2021/01/13 07:29:27;;;;;;;33.37;17.00;;;-3271.40;68.10;;;;;;5010932;28;85240;-73
2021/01/13 07:31:55;;;;;;;34.67;17.33;;;-3271.40;68.10;;;;;;4995919;28;84006;-72
2021/01/13 07:34:37;;;;;;;40.57;18.30;;;-3271.30;68.00;;;;;;5010934;28;84096;-70
2021/01/13 07:37:16;;;;;;;40.53;18.30;;;-3271.30;67.90;;;;;;5010352;28;83178;-72
2021/01/13 07:40:05;;;;;;;39.20;17.47;;;-3271.30;67.80;;;;;;5005548;28;85269;-73
2021/01/13 07:42:35;;;;;;;42.53;17.33;;;-3271.30;67.70;;;;;;4965639;28;84596;-75
2021/01/13 07:45:18;;;;;;;43.00;18.77;;;-3271.40;67.50;;;;;;5001247;28;86748;-74
2021/01/13 07:47:56;;;;;;;32.20;15.27;;;-3271.50;67.50;;;;;;4999834;28;84609;-75
2021/01/13 07:50:23;;;;;;;34.90;18.37;;;-3271.60;67.50;;;;;;5010984;28;85570;-72
2021/01/13 07:52:51;;;;;;;41.00;19.40;;;-3271.60;67.30;;;;;;5002065;28;83894;-75
2021/01/13 07:55:22;;;;;;;42.77;17.60;;;-3271.60;67.20;;;;;;5011049;28;84253;-71
2021/01/13 07:57:59;;;;;;;42.37;19.53;;;-3271.60;66.90;;;;;;4996752;28;84210;-73
2021/01/13 08:00:48;;;;;;;39.67;18.87;;;-3271.70;66.90;;;;;;5001372;28;86500;-69
2021/01/13 08:03:51;;;;;;;44.13;17.90;;;-3271.70;67.00;;;;;;5003232;28;84525;-72
2021/01/13 08:06:48;;;;;;;41.45;17.88;;;-3271.80;66.70;;;;;;5010132;28;83375;-69
2021/01/13 08:09:20;;;;;;;34.20;18.60;;;-3271.80;66.70;;;;;;5003440;28;84873;-72
2021/01/13 08:12:05;;;;;;;39.63;17.90;;;-3271.80;66.50;;;;;;4993979;28;84594;-70
2021/01/13 08:14:43;;;;;;;39.57;17.90;;;-3271.80;66.50;;;;;;4999942;28;86352;-72
2021/01/13 08:17:46;;;;;;;34.70;17.40;;;-3271.80;66.60;;;;;;4995593;28;84595;-73
2021/01/13 08:20:55;;;;;;;36.00;15.90;;;-3271.80;66.60;;;;;;4992316;28;87031;-70
2021/01/13 08:23:26;;;;;;;34.50;16.33;;;-3271.80;66.50;;;;;;4947656;28;84229;-70
2021/01/13 08:26:05;;;;;;;32.57;16.57;;;-3271.80;66.60;;;;;;4947466;28;83906;-71
2021/01/13 08:28:40;;;;;;;32.10;16.40;;;-3271.90;66.50;;;;;;4970523;28;84195;-73
2021/01/13 08:31:07;;;;;;;45.73;18.47;;;-3272.00;66.40;;;;;;5010851;28;83903;-74
2021/01/13 08:33:36;;;;;;;34.80;17.63;;;-3272.00;66.30;;;;;;5003737;28;85457;-73
2021/01/13 08:36:13;;;;;;;39.47;17.60;;;-3272.20;66.40;;;;;;5010419;28;83385;-63
2021/01/13 08:39:04;;;;;;;36.23;16.60;;;-3272.30;65.90;;;;;;5010851;28;84112;-62
2021/01/13 08:41:31;;;;;;;35.00;16.10;;;-3272.30;65.60;;;;;;5010302;28;83774;-61
2021/01/13 08:44:17;;;;;;;33.53;17.27;;;-3272.40;65.70;;;;;;5000647;28;85299;-62
2021/01/13 08:46:57;;;;;;;36.33;16.63;;;-3272.60;65.30;;;;;;4998491;28;86157;-62
2021/01/13 08:49:27;;;;;;;36.20;16.83;;;-3272.80;65.20;;;;;;5010202;28;85130;-63
2021/01/13 08:52:28;;;;;;;41.23;19.23;;;-3273.10;64.50;;;;;;4999763;28;84891;-61
2021/01/13 08:54:56;;;;;;;40.07;18.43;;;-3273.30;63.90;;;;;;5010474;28;83914;-61
2021/01/13 08:57:25;;;;;;;33.60;18.67;;;-3273.60;63.70;;;;;;5001159;28;84644;-61
2021/01/13 08:59:54;;;;;;;40.00;20.67;;;-3273.80;63.50;;;;;;5009604;28;84578;-61
2021/01/13 09:02:24;;;;;;;41.20;20.37;;;-3274.10;63.10;;;;;;5009918;28;84030;-62
2021/01/13 09:04:56;;;;;;;37.37;17.87;;;-3274.20;62.30;;;;;;5010451;28;83881;-61
2021/01/13 09:07:25;;;;;;;36.97;19.07;;;-3274.30;62.20;;;;;;4995929;28;85171;-63
2021/01/13 09:10:00;;;;;;;39.93;20.73;;;-3274.60;62.10;;;;;;5010737;28;84402;-64
2021/01/13 09:12:35;;;;;;;38.53;19.33;;;-3274.80;61.50;;;;;;5009004;28;84487;-63
2021/01/13 09:15:09;;;;;;;42.93;19.63;;;-3274.90;61.20;;;;;;5008931;28;83223;-63
2021/01/13 09:17:40;;;;;;;44.47;20.20;;;-3275.00;61.20;;;;;;5009560;28;85272;-63
2021/01/13 09:20:12;;;;;;;51.57;23.40;;;-3275.30;61.20;;;;;;5009286;28;84362;-62
2021/01/13 09:22:47;;;;;;;44.73;23.20;;;-3275.60;60.70;;;;;;5009647;28;83368;-63
2021/01/13 09:25:20;;;;;;;44.07;20.80;;;-3275.90;59.90;;;;;;5001927;28;83777;-62
2021/01/13 09:27:49;;;;;;;42.73;20.87;;;-3276.20;59.30;;;;;;5009019;28;84151;-62
2021/01/13 09:30:33;;;;;;;40.53;22.13;;;-3276.20;59.30;;;;;;4995792;28;86284;-64
2021/01/13 09:33:01;;;;;;;42.13;21.90;;;-3276.20;59.80;;;;;;5009425;28;84265;-63
2021/01/13 09:35:36;;;;;;;39.17;20.50;;;-3276.50;59.70;;;;;;5008896;28;84385;-63
2021/01/13 09:38:10;;;;;;;38.83;21.40;;;0.20;58.10;;;;;;5008827;28;84307;-63
2021/01/13 09:41:03;;;;;;;39.60;23.40;;;0.60;57.00;;;;;;4994881;28;86213;-63
2021/01/13 09:43:46;;;;;;;41.87;23.00;;;1.00;56.20;;;;;;5006127;28;83630;-63
2021/01/13 09:46:21;;;;;;;44.60;23.80;;;1.20;55.90;;;;;;5001110;28;85448;-63
2021/01/13 09:49:08;;;;;;;39.97;22.90;;;1.70;55.00;;;;;;5001195;28;84973;-64
2021/01/13 09:51:35;;;;;;;43.27;24.90;;;2.60;53.10;;;;;;5005233;28;85995;-64
2021/01/13 09:54:03;;;;;;;47.77;24.23;;;3.40;50.70;;;;;;4999624;28;84933;-64
2021/01/13 09:56:31;;;;;;;46.53;24.20;;;3.90;49.50;;;;;;5011389;28;83917;-64
2021/01/13 09:58:57;;;;;;;47.30;24.73;;;4.30;48.40;;;;;;5001447;28;83508;-64
2021/01/13 10:01:26;;;;;;;43.03;23.57;;;4.40;48.10;;;;;;5010761;28;83850;-63
2021/01/13 10:03:57;;;;;;;40.90;22.90;;;4.60;47.60;;;;;;5011337;28;83172;-63
2021/01/13 10:06:28;;;;;;;41.77;23.53;;;4.60;47.30;;;;;;5004807;28;83925;-63
2021/01/13 10:08:57;;;;;;;42.67;23.53;;;4.90;46.70;;;;;;4994221;28;85193;-63
2021/01/13 10:11:27;;;;;;;41.00;24.00;;;5.30;46.10;;;;;;5010654;28;84057;-62
2021/01/13 10:14:03;;;;;;;49.40;24.97;;;5.40;45.40;;;;;;4999030;28;85651;-63
2021/01/13 10:16:30;;;;;;;42.90;23.07;;;5.70;44.80;;;;;;5010361;28;84377;-62
2021/01/13 10:18:58;;;;;;;40.38;23.02;;;6.40;43.80;;;;;;4998433;28;83993;-62
2021/01/13 10:21:33;;;;;;;41.37;22.83;;;7.30;42.10;;;;;;5011105;28;84230;-64
2021/01/13 10:24:22;;;;;;;45.70;22.67;;;8.00;40.60;;;;;;5008798;28;83928;-63
2021/01/13 10:26:49;;;;;;;40.50;22.52;;;8.40;39.60;;;;;;5011795;28;83933;-63
2021/01/13 10:29:22;;;;;;;41.03;23.27;;;8.90;39.00;;;;;;5002468;28;84429;-65
2021/01/13 10:31:48;;;;;;;36.97;20.42;;;9.20;38.20;;;;;;5013552;28;83788;-63
2021/01/13 10:34:14;;;;;;;40.20;22.45;;;9.00;38.10;;;;;;5012506;28;83466;-65
2021/01/13 10:36:44;;;;;;;41.92;22.70;;;8.60;38.60;;;;;;5011122;28;83357;-63
2021/01/13 10:39:27;;;;;;;42.28;22.42;;;9.40;37.90;;;;;;5010907;28;83960;-62
2021/01/13 10:41:55;;;;;;;39.40;22.60;;;10.70;36.20;;;;;;5010653;28;84332;-63
2021/01/13 10:44:27;;;;;;;40.53;23.00;;;12.40;33.30;;;;;;5000014;28;85890;-64
2021/01/13 10:46:59;;;;;;;41.57;21.93;;;13.80;31.60;;;;;;5009951;28;83317;-62
2021/01/13 10:49:36;;;;;;;41.07;23.60;;;15.10;29.50;;;;;;5014000;28;83950;-63
2021/01/13 10:52:20;;;;;;;40.17;23.38;;;16.10;28.50;;;;;;5013830;28;83766;-63
2021/01/13 10:54:54;;;;;;;39.90;24.75;;;16.20;28.70;;;;;;5012520;28;83878;-64
2021/01/13 10:57:31;;;;;;;43.30;24.77;;;16.10;28.30;;;;;;5013333;28;84341;-62
2021/01/13 11:00:18;;;;;;;41.75;24.50;;;16.00;28.80;;;;;;5013995;28;84365;-65
2021/01/13 11:03:02;;;;;;;40.55;23.42;;;16.40;28.80;;;;;;5012856;28;84242;-62
2021/01/13 11:05:32;;;;;;;38.58;24.88;;;15.50;29.70;;;;;;5013592;28;83967;-63
2021/01/13 11:07:57;;;;;;;38.75;22.65;;;15.20;29.80;;;;;;5011652;28;84273;-64
2021/01/13 11:10:24;;;;;;;40.28;22.85;;;15.70;29.30;;;;;;5012736;28;84913;-65
2021/01/13 11:12:59;;;;;;;35.40;23.05;;;17.20;27.30;;;;;;5013122;28;84235;-64
2021/01/13 11:15:25;;;;;;;37.15;22.73;;;17.80;26.40;;;;;;5013009;28;84052;-63
2021/01/13 11:17:55;;;;;;;41.55;25.08;;;17.90;26.20;;;;;;5012595;28;84756;-64
2021/01/13 11:20:22;;;;;;;41.03;24.83;;;18.60;25.60;;;;;;5012078;28;84312;-62
2021/01/13 11:22:50;;;;;;;48.20;24.80;;;19.80;24.70;;;;;;5001339;28;84260;-66
2021/01/13 11:25:37;;;;;;;39.40;24.25;;;19.90;24.60;;;;;;5011435;28;83989;-65
2021/01/13 11:28:09;;;;;;;40.25;22.85;;;19.70;24.90;;;;;;5002463;28;84702;-62
2021/01/13 11:30:37;;;;;;;39.10;21.70;;;20.20;24.40;;;;;;5012905;28;83376;-63
2021/01/13 11:33:05;;;;;;;44.00;23.52;;;20.50;24.10;;;;;;5011955;28;84547;-63
2021/01/13 11:35:33;;;;;;;37.53;23.35;;;19.80;24.60;;;;;;5011963;28;84217;-63
2021/01/13 11:38:33;;;;;;;37.78;22.83;;;18.00;26.40;;;;;;5011301;28;84272;-62
2021/01/13 11:41:31;;;;;;;39.38;25.00;;;17.50;27.20;;;;;;5011748;28;84217;-62
2021/01/13 11:44:29;;;;;;;42.80;23.65;;;18.20;26.50;;;;;;4981105;28;84056;-62
2021/01/13 11:47:09;;;;;;;36.72;22.05;;;17.90;27.00;;;;;;5011573;28;84067;-62
2021/01/13 11:49:44;;;;;;;34.65;22.05;;;18.40;26.50;;;;;;4998937;28;82954;-63
2021/01/13 11:52:16;;;;;;;39.97;22.13;;;19.00;25.70;;;;;;5010284;28;83921;-64
2021/01/13 11:54:48;;;;;;;38.05;23.38;;;19.50;25.20;;;;;;5003689;28;86304;-61
2021/01/13 11:57:22;;;;;;;34.75;23.17;;;20.20;24.30;;;;;;5012144;28;83879;-62
2021/01/13 11:59:49;;;;;;;36.95;23.55;;;21.00;23.70;;;;;;5011020;28;84025;-65
2021/01/13 12:02:30;;;;;;;33.20;22.48;;;21.90;23.00;;;;;;5011748;28;82926;-63
2021/01/13 12:04:55;;;;;;;32.55;21.67;;;22.20;22.90;;;;;;5009951;28;85512;-62
2021/01/13 12:07:21;;;;;;;38.78;22.48;;;23.00;22.30;;;;;;5009746;28;84406;-61
2021/01/13 12:10:13;;;;;;;34.15;23.13;;;23.10;22.00;;;;;;5010520;28;83921;-63
2021/01/13 12:12:40;;;;;;;30.83;21.30;;;21.90;22.80;;;;;;4998176;28;84885;-63
2021/01/13 12:15:08;;;;;;;27.80;19.85;;;20.50;24.00;;;;;;5010480;28;84071;-62
2021/01/13 12:17:47;;;;;;;34.10;22.27;;;20.30;24.40;;;;;;5010163;28;84384;-61
2021/01/13 12:20:13;;;;;;;30.27;21.42;;;20.80;24.00;;;;;;5010860;28;84020;-62
2021/01/13 12:22:39;;;;;;;34.67;21.50;;;21.20;23.40;;;;;;5010507;28;84550;-61
2021/01/13 12:25:05;;;;;;;32.00;22.20;;;21.70;22.80;;;;;;5010632;28;83841;-61
2021/01/13 12:27:31;;;;;;;30.90;22.17;;;21.60;22.90;;;;;;5010609;28;84113;-61
2021/01/13 12:30:09;;;;;;;35.78;21.42;;;20.90;23.50;;;;;;4992252;28;83601;-61
2021/01/13 12:32:36;;;;;;;32.58;20.95;;;19.00;25.10;;;;;;5010633;28;84154;-62
2021/01/13 12:35:04;;;;;;;29.10;19.60;;;18.30;26.20;;;;;;5009909;28;84095;-62